Time;durP1;ratioP1;P1;durP2;ratioP2;P2;SDS_P1;SDS_P2;PMS_P1;PMS_P2;Temp;Humidity;BMP_temperature;BMP_pressure;BME280_temperature;BME280_humidity;BME280_pressure;Samples;Min_cycle;Max_cycle;Signal;HPM_P1;HPM_P2
2022/12/29 00:01:31;;;;;;;29.57;24.93;;;;;;;4.05;100.00;93656.66;5090297;28;20208;-76
2022/12/29 00:03:57;;;;;;;34.07;23.07;;;;;;;4.06;100.00;93659.00;5090825;28;20210;-76
2022/12/29 00:06:22;;;;;;;35.07;25.37;;;;;;;3.83;100.00;93648.50;5090492;28;20203;-76
2022/12/29 00:08:48;;;;;;;28.73;21.37;;;;;;;4.01;100.00;93671.81;5090528;28;20215;-76
2022/12/29 00:11:20;;;;;;;30.10;21.67;;;;;;;4.05;100.00;93667.78;5090614;28;20184;-75
2022/12/29 00:16:32;;;;;;;29.17;20.53;;;;;;;3.96;100.00;93671.63;5090489;28;20215;-76
2022/12/29 00:18:58;;;;;;;26.17;21.97;;;;;;;3.96;100.00;93681.97;5089619;28;20184;-76
2022/12/29 00:35:33;;;;;;;32.97;23.73;;;;;;;3.96;100.00;93679.41;5088953;28;20322;-76
2022/12/29 00:46:14;;;;;;;24.43;19.63;;;;;;;3.84;100.00;93680.28;5088108;28;20208;-76
2022/12/29 00:51:23;;;;;;;25.43;20.93;;;;;;;3.72;100.00;93651.00;5070174;28;20232;-76
2022/12/29 00:53:49;;;;;;;31.53;21.00;;;;;;;3.77;100.00;93667.44;5070368;28;20244;-76
2022/12/29 00:56:14;;;;;;;31.50;21.63;;;;;;;3.76;100.00;93678.78;5089286;28;20181;-76
2022/12/29 00:58:39;;;;;;;33.03;22.97;;;;;;;3.72;100.00;93656.94;5089498;28;20188;-76
2022/12/29 01:01:08;;;;;;;34.83;23.33;;;;;;;3.97;100.00;93682.78;5089619;28;20223;-76
2022/12/29 01:03:35;;;;;;;32.10;23.47;;;;;;;3.87;100.00;93675.50;5086884;28;20176;-77
2022/12/29 01:06:02;;;;;;;31.17;23.27;;;;;;;3.79;100.00;93678.34;5089114;28;20224;-76
2022/12/29 01:08:28;;;;;;;30.33;22.80;;;;;;;3.87;100.00;93679.88;5089244;28;20200;-76
2022/12/29 01:11:05;;;;;;;31.77;23.80;;;;;;;3.72;100.00;93667.25;5089343;28;20285;-76
2022/12/29 01:13:31;;;;;;;28.93;22.63;;;;;;;3.64;100.00;93683.03;5089258;28;20214;-76
2022/12/29 01:15:57;;;;;;;35.30;23.73;;;;;;;3.54;100.00;93681.91;5089221;28;20216;-76
2022/12/29 01:18:24;;;;;;;32.70;24.50;;;;;;;3.42;100.00;93670.69;5090017;28;20188;-76
2022/12/29 01:20:49;;;;;;;35.93;25.73;;;;;;;3.34;100.00;93679.47;5088837;28;20216;-76
2022/12/29 01:23:14;;;;;;;36.20;25.90;;;;;;;3.51;100.00;93669.41;5089585;28;20260;-76
2022/12/29 01:25:40;;;;;;;30.97;25.43;;;;;;;3.54;100.00;93674.97;5089249;28;20229;-76
2022/12/29 01:28:08;;;;;;;34.17;24.73;;;;;;;3.47;100.00;93663.88;5087931;28;20196;-76
2022/12/29 01:30:34;;;;;;;34.67;25.37;;;;;;;3.59;100.00;93666.59;5089659;28;20223;-75
2022/12/29 01:32:59;;;;;;;41.43;27.57;;;;;;;3.37;100.00;93665.34;5091242;28;20263;-76
2022/12/29 01:35:25;;;;;;;34.80;26.63;;;;;;;3.40;100.00;93637.34;5088389;28;20217;-76
2022/12/29 01:37:50;;;;;;;41.23;29.20;;;;;;;3.56;100.00;93672.97;5089188;28;20268;-76
2022/12/29 01:40:15;;;;;;;34.83;27.87;;;;;;;3.70;100.00;93663.31;5088875;28;20248;-76
2022/12/29 01:42:41;;;;;;;35.77;25.27;;;;;;;3.59;100.00;93649.31;5091718;28;20215;-76
2022/12/29 01:45:13;;;;;;;36.50;27.73;;;;;;;3.63;100.00;93642.72;5089789;28;20243;-76
2022/12/29 01:48:04;;;;;;;36.90;26.33;;;;;;;3.44;100.00;93648.03;5091695;28;20200;-76
2022/12/29 01:50:35;;;;;;;36.63;26.40;;;;;;;3.74;100.00;93652.34;5092316;28;20240;-76
2022/12/29 01:53:07;;;;;;;37.33;25.03;;;;;;;3.85;100.00;93650.88;5092432;28;20196;-76
2022/12/29 01:55:37;;;;;;;33.97;25.70;;;;;;;3.66;100.00;93639.72;5093413;28;20273;-76
2022/12/29 01:58:05;;;;;;;36.47;25.77;;;;;;;3.64;100.00;93628.03;5093829;28;20283;-76
2022/12/29 02:00:30;;;;;;;38.93;26.77;;;;;;;3.90;100.00;93656.19;5093043;28;20221;-76
2022/12/29 02:02:56;;;;;;;35.33;25.30;;;;;;;3.82;100.00;93657.25;5094118;28;20694;-76
2022/12/29 02:05:37;;;;;;;40.80;27.17;;;;;;;3.71;100.00;93649.41;5091104;28;20251;-77
2022/12/29 02:08:03;;;;;;;31.20;26.13;;;;;;;3.79;100.00;93626.69;5091461;28;20219;-75
2022/12/29 02:10:32;;;;;;;37.97;26.57;;;;;;;4.00;100.00;93646.19;5093762;28;20228;-76
2022/12/29 02:12:58;;;;;;;38.27;25.63;;;;;;;3.79;100.00;93616.38;5091758;28;20215;-78
2022/12/29 02:15:35;;;;;;;33.90;24.83;;;;;;;4.01;100.00;93630.47;5092354;28;20249;-76
2022/12/29 02:18:07;;;;;;;39.90;27.97;;;;;;;4.02;100.00;93631.25;5091820;28;20244;-76
2022/12/29 02:20:53;;;;;;;36.60;25.83;;;;;;;4.08;100.00;93638.94;5092703;28;20224;-75
2022/12/29 02:23:31;;;;;;;37.70;25.00;;;;;;;4.10;100.00;93634.34;5092402;28;20196;-76
2022/12/29 02:26:06;;;;;;;38.10;25.63;;;;;;;4.10;100.00;93633.56;5107630;28;20220;-75
2022/12/29 02:28:49;;;;;;;33.33;24.33;;;;;;;4.03;100.00;93636.19;5091987;28;20195;-75
2022/12/29 02:31:32;;;;;;;37.60;26.43;;;;;;;4.01;100.00;93640.81;5093639;28;20215;-75
2022/12/29 02:34:30;;;;;;;35.43;25.73;;;;;;;4.01;100.00;93627.88;5091198;28;20189;-75
2022/12/29 02:37:09;;;;;;;36.47;25.67;;;;;;;3.94;100.00;93616.81;5083624;28;20201;-75
2022/12/29 02:39:58;;;;;;;31.73;24.40;;;;;;;3.96;100.00;93640.66;5091247;28;20258;-76
2022/12/29 02:43:01;;;;;;;34.60;25.17;;;;;;;3.82;100.00;93634.03;5092059;28;20197;-75
2022/12/29 02:45:38;;;;;;;37.23;27.30;;;;;;;4.18;100.00;93628.91;5088197;28;20220;-75
2022/12/29 02:48:15;;;;;;;37.00;26.30;;;;;;;4.14;100.00;93630.31;5091585;28;20212;-75
2022/12/29 02:50:58;;;;;;;41.07;27.57;;;;;;;4.14;100.00;93638.06;5089756;28;20246;-75
2022/12/29 02:56:10;;;;;;;33.33;26.43;;;;;;;4.22;100.00;93627.47;5070934;28;20232;-75
2022/12/29 02:58:35;;;;;;;36.30;26.97;;;;;;;4.22;100.00;93630.03;5070617;28;20189;-76
2022/12/29 03:01:23;;;;;;;40.90;29.00;;;;;;;4.17;100.00;93614.38;5070865;28;20225;-75
2022/12/29 03:03:53;;;;;;;40.67;28.17;;;;;;;4.21;100.00;93630.25;5071719;28;20185;-75
2022/12/29 03:06:18;;;;;;;45.43;30.47;;;;;;;4.13;100.00;93626.16;5091570;28;20188;-76
2022/12/29 03:08:50;;;;;;;36.67;28.07;;;;;;;4.17;100.00;93603.28;5090048;28;20193;-75
2022/12/29 03:17:04;;;;;;;37.33;26.20;;;;;;;4.08;100.00;93614.88;5091685;28;20195;-75
2022/12/29 03:19:36;;;;;;;34.87;27.03;;;;;;;3.98;100.00;93625.72;5090938;28;20228;-75
2022/12/29 03:24:57;;;;;;;39.93;27.37;;;;;;;3.75;100.00;93607.44;5091119;28;20235;-75
2022/12/29 03:27:48;;;;;;;36.63;27.63;;;;;;;3.63;100.00;93609.16;5091954;28;20236;-75
2022/12/29 03:30:15;;;;;;;37.63;27.93;;;;;;;3.31;100.00;93561.19;5083963;28;20221;-75
2022/12/29 03:32:46;;;;;;;40.50;26.70;;;;;;;3.57;100.00;93615.16;5091235;28;20184;-75
2022/12/29 03:35:16;;;;;;;41.00;28.80;;;;;;;3.42;100.00;93606.97;5090110;28;20227;-76
2022/12/29 03:37:50;;;;;;;37.73;26.97;;;;;;;3.28;100.00;93608.06;5091621;28;20192;-75
2022/12/29 03:40:16;;;;;;;42.07;28.80;;;;;;;3.09;100.00;93616.72;5091590;28;20224;-76
2022/12/29 03:42:42;;;;;;;44.13;29.80;;;;;;;3.05;100.00;93613.75;5090691;28;20196;-75
2022/12/29 03:45:09;;;;;;;44.13;28.57;;;;;;;3.03;100.00;93617.56;5092313;28;20246;-76
2022/12/29 03:47:34;;;;;;;45.30;29.00;;;;;;;2.69;100.00;93599.91;5090840;28;20191;-75
2022/12/29 03:50:00;;;;;;;38.07;25.53;;;;;;;2.67;100.00;93614.78;5090422;28;20229;-75
2022/12/29 03:52:25;;;;;;;35.53;24.83;;;;;;;2.82;100.00;93617.84;5090595;28;20188;-76
2022/12/29 03:54:50;;;;;;;35.30;26.57;;;;;;;2.44;100.00;93599.81;5091408;28;20213;-75
2022/12/29 03:57:16;;;;;;;31.83;24.77;;;;;;;2.47;100.00;93621.81;5091657;28;20261;-75
2022/12/29 03:59:41;;;;;;;37.67;26.60;;;;;;;2.51;100.00;93630.69;5091859;28;20254;-76
2022/12/29 04:02:06;;;;;;;33.53;24.70;;;;;;;2.52;100.00;93616.84;5091290;28;20296;-75
2022/12/29 04:04:32;;;;;;;31.57;24.77;;;;;;;2.48;100.00;93621.59;5089877;28;20235;-76
2022/12/29 04:06:57;;;;;;;29.43;23.07;;;;;;;2.47;100.00;93632.09;5090988;28;20200;-75
2022/12/29 04:09:23;;;;;;;33.27;24.93;;;;;;;2.46;100.00;93643.44;5090099;28;20228;-76
2022/12/29 04:11:48;;;;;;;30.20;22.40;;;;;;;2.32;100.00;93636.72;5091845;28;20185;-75
2022/12/29 04:14:14;;;;;;;30.93;22.60;;;;;;;2.31;100.00;93640.28;5089627;28;20868;-76
2022/12/29 04:16:39;;;;;;;37.07;25.23;;;;;;;2.29;100.00;93642.28;5089427;28;20191;-75
2022/12/29 04:19:06;;;;;;;29.40;23.23;;;;;;;2.26;100.00;93629.78;5090458;28;20224;-75
2022/12/29 04:21:31;;;;;;;27.73;22.40;;;;;;;2.19;100.00;93642.72;5090657;28;20216;-76
2022/12/29 04:23:57;;;;;;;23.77;20.30;;;;;;;2.09;100.00;93626.88;5091086;28;20188;-75
2022/12/29 04:26:22;;;;;;;25.93;21.43;;;;;;;2.12;100.00;93639.34;5090162;28;20227;-75
2022/12/29 04:28:47;;;;;;;25.57;19.60;;;;;;;2.19;100.00;93641.91;5121145;27;20268;-75
2022/12/29 04:31:13;;;;;;;23.63;19.37;;;;;;;2.04;100.00;93633.63;5090725;28;20831;-74
2022/12/29 04:33:38;;;;;;;23.27;19.60;;;;;;;2.13;100.00;93646.09;5089892;28;20284;-75
2022/12/29 04:36:04;;;;;;;25.77;19.27;;;;;;;1.86;100.00;93598.22;5089882;28;20231;-76
2022/12/29 04:38:29;;;;;;;22.47;19.60;;;;;;;2.41;100.00;93653.53;5090662;28;20180;-75
2022/12/29 04:40:55;;;;;;;25.10;20.93;;;;;;;2.31;100.00;93635.94;5089659;28;20236;-75
2022/12/29 04:43:21;;;;;;;25.93;21.53;;;;;;;2.29;100.00;93637.13;5090309;28;20253;-75
2022/12/29 04:45:47;;;;;;;27.83;20.80;;;;;;;2.39;100.00;93627.19;5088108;28;20228;-75
2022/12/29 04:48:13;;;;;;;29.80;20.53;;;;;;;2.53;100.00;93649.31;5090506;28;20193;-73
2022/12/29 04:50:39;;;;;;;28.17;21.40;;;;;;;2.69;100.00;93648.88;5089179;28;20221;-74
2022/12/29 04:53:05;;;;;;;29.07;22.03;;;;;;;2.86;100.00;93666.22;5091022;28;20193;-75
2022/12/29 04:55:31;;;;;;;24.83;20.57;;;;;;;2.84;100.00;93652.75;5089114;28;20220;-75
2022/12/29 04:57:56;;;;;;;30.47;22.13;;;;;;;2.78;100.00;93650.22;5090896;28;20184;-75
2022/12/29 05:00:22;;;;;;;33.13;23.20;;;;;;;3.01;100.00;93668.53;5089853;28;20208;-75
2022/12/29 05:02:47;;;;;;;33.33;23.30;;;;;;;2.96;100.00;93666.59;5090308;28;20220;-75
2022/12/29 05:05:13;;;;;;;31.00;23.53;;;;;;;3.06;100.00;93668.72;5089518;28;20228;-75
2022/12/29 05:07:38;;;;;;;29.33;22.53;;;;;;;3.03;100.00;93651.09;5090528;28;20200;-76
2022/12/29 05:10:04;;;;;;;28.40;22.70;;;;;;;3.22;100.00;93673.41;5090579;28;20232;-75
2022/12/29 05:12:35;;;;;;;25.70;22.20;;;;;;;3.25;100.00;93670.41;5090313;28;20207;-76
2022/12/29 05:15:01;;;;;;;29.57;23.10;;;;;;;3.25;100.00;93668.59;5090035;28;20228;-75
2022/12/29 05:18:17;;;;;;;26.73;22.33;;;;;;;3.31;100.00;93660.00;5090010;28;20195;-75
2022/12/29 05:20:42;;;;;;;31.10;23.47;;;;;;;3.27;100.00;93656.28;5086275;28;20220;-75
2022/12/29 05:23:08;;;;;;;28.90;23.10;;;;;;;3.25;100.00;93670.41;5090461;28;20754;-76
2022/12/29 05:25:33;;;;;;;32.27;23.80;;;;;;;3.28;100.00;93675.13;5091071;28;20216;-76
2022/12/29 05:27:58;;;;;;;38.37;27.07;;;;;;;3.09;100.00;93666.53;5094266;28;20222;-75
2022/12/29 05:30:24;;;;;;;37.13;27.40;;;;;;;3.20;100.00;93667.66;5092728;28;20239;-75
2022/12/29 05:32:49;;;;;;;37.17;27.23;;;;;;;3.18;100.00;93672.22;5091565;28;20788;-75
2022/12/29 05:35:14;;;;;;;37.73;27.47;;;;;;;3.32;100.00;93650.50;5090955;28;21034;-75
2022/12/29 05:37:40;;;;;;;46.47;28.73;;;;;;;3.51;100.00;93659.09;5092287;28;20192;-76
2022/12/29 05:40:06;;;;;;;40.33;28.07;;;;;;;3.46;100.00;93670.06;5092469;28;20228;-76
2022/12/29 05:42:31;;;;;;;39.77;27.77;;;;;;;3.54;100.00;93669.78;5091682;28;20215;-76
2022/12/29 05:44:57;;;;;;;39.27;27.10;;;;;;;3.45;100.00;93658.16;5091242;28;20287;-76
2022/12/29 05:47:23;;;;;;;40.73;29.93;;;;;;;3.64;100.00;93670.13;5091321;28;20204;-76
2022/12/29 05:49:48;;;;;;;38.83;27.93;;;;;;;3.45;100.00;93659.94;5089542;28;20225;-75
2022/12/29 05:52:45;;;;;;;39.00;28.13;;;;;;;3.66;100.00;93669.91;5089388;28;20191;-75
2022/12/29 05:55:11;;;;;;;39.93;28.30;;;;;;;3.75;100.00;93681.56;5091434;28;20229;-75
2022/12/29 05:57:36;;;;;;;42.97;29.83;;;;;;;3.59;100.00;93682.06;5091803;28;20203;-76
2022/12/29 06:00:06;;;;;;;43.07;27.77;;;;;;;3.64;100.00;93677.88;5090927;28;20232;-76
2022/12/29 06:02:31;;;;;;;39.00;28.90;;;;;;;3.61;100.00;93675.69;5090823;28;20213;-76
2022/12/29 06:04:56;;;;;;;36.90;26.93;;;;;;;3.60;100.00;93674.13;5089435;28;20244;-75
2022/12/29 06:07:22;;;;;;;39.43;28.37;;;;;;;3.75;100.00;93692.66;5091199;28;20187;-76
2022/12/29 06:09:47;;;;;;;42.23;29.03;;;;;;;3.78;100.00;93681.94;5092034;28;20225;-75
2022/12/29 06:12:13;;;;;;;43.53;27.47;;;;;;;3.85;100.00;93681.88;5091665;28;20177;-76
2022/12/29 06:14:38;;;;;;;44.17;28.80;;;;;;;3.79;100.00;93685.28;5090579;28;20242;-75
2022/12/29 06:17:03;;;;;;;41.73;29.13;;;;;;;3.60;100.00;93648.28;5091126;28;20207;-76
2022/12/29 06:19:29;;;;;;;38.77;27.30;;;;;;;4.00;100.00;93690.09;5092951;28;20221;-75
2022/12/29 06:21:54;;;;;;;38.63;27.60;;;;;;;4.06;100.00;93692.59;5089758;28;20212;-75
2022/12/29 06:24:20;;;;;;;33.83;25.13;;;;;;;4.15;100.00;93688.78;5090263;28;20287;-75
2022/12/29 06:26:46;;;;;;;38.30;28.57;;;;;;;4.31;100.00;93688.19;5090457;28;20176;-75
2022/12/29 06:29:13;;;;;;;37.60;26.93;;;;;;;4.28;100.00;93698.19;5090938;28;20292;-76
2022/12/29 06:31:38;;;;;;;35.23;27.23;;;;;;;4.14;100.00;93681.22;5091531;28;20181;-76
2022/12/29 06:34:04;;;;;;;31.60;25.20;;;;;;;4.44;100.00;93692.44;5091103;28;20239;-76
2022/12/29 06:36:29;;;;;;;34.80;25.77;;;;;;;4.41;100.00;93698.84;5090012;28;20185;-73
2022/12/29 06:38:54;;;;;;;37.03;25.03;;;;;;;4.38;100.00;93696.69;5089086;28;20184;-75
2022/12/29 06:41:20;;;;;;;43.27;27.23;;;;;;;4.29;100.00;93690.22;5089350;28;20209;-76
2022/12/29 06:43:46;;;;;;;48.13;30.90;;;;;;;4.24;100.00;93697.81;5092569;28;20252;-75
2022/12/29 06:46:11;;;;;;;43.43;30.23;;;;;;;3.84;100.00;93695.78;5090246;28;20196;-76
2022/12/29 06:48:37;;;;;;;46.97;30.97;;;;;;;3.86;100.00;93673.91;5090492;28;20193;-75
2022/12/29 06:51:02;;;;;;;45.90;32.10;;;;;;;4.11;100.00;93700.50;5090565;28;20232;-75
2022/12/29 06:53:27;;;;;;;52.80;32.63;;;;;;;4.00;100.00;93675.38;5091478;28;20192;-76
2022/12/29 06:55:53;;;;;;;46.47;31.30;;;;;;;4.19;100.00;93692.50;5090114;28;20253;-81
2022/12/29 06:58:18;;;;;;;44.57;29.63;;;;;;;4.19;100.00;93683.94;5091863;28;20180;-84
2022/12/29 07:00:44;;;;;;;45.60;31.13;;;;;;;4.30;100.00;93701.34;5089647;28;20232;-83
2022/12/29 07:03:09;;;;;;;48.07;30.60;;;;;;;4.32;100.00;93714.84;5090630;28;20239;-82
2022/12/29 07:05:35;;;;;;;48.97;30.20;;;;;;;4.28;100.00;93706.72;5090934;28;20227;-75
2022/12/29 07:08:00;;;;;;;51.33;30.17;;;;;;;4.33;100.00;93690.56;5091082;28;20177;-78
2022/12/29 07:10:26;;;;;;;45.90;31.37;;;;;;;4.35;100.00;93714.41;5090231;28;20232;-77
2022/12/29 07:12:51;;;;;;;47.10;32.03;;;;;;;4.31;100.00;93714.03;5090171;28;20195;-74
2022/12/29 07:15:17;;;;;;;43.70;30.50;;;;;;;4.26;100.00;93702.78;5089962;28;20213;-77
2022/12/29 07:17:42;;;;;;;51.27;33.23;;;;;;;4.35;100.00;93707.47;5089842;28;20184;-78
2022/12/29 07:20:08;;;;;;;50.77;31.63;;;;;;;4.57;100.00;93698.28;5090416;28;20220;-75
2022/12/29 07:22:34;;;;;;;47.03;32.47;;;;;;;4.45;100.00;93701.81;5088460;28;20205;-79
2022/12/29 07:24:59;;;;;;;46.07;31.23;;;;;;;4.24;100.00;93695.25;5089133;28;20258;-81
2022/12/29 07:27:25;;;;;;;54.03;32.30;;;;;;;4.23;100.00;93709.16;5088685;28;20195;-78
2022/12/29 07:29:50;;;;;;;49.87;30.70;;;;;;;4.14;100.00;93702.69;5088870;28;20232;-84
2022/12/29 07:32:15;;;;;;;41.33;31.10;;;;;;;4.13;100.00;93683.00;5088739;28;20196;-77
2022/12/29 07:34:41;;;;;;;46.03;32.00;;;;;;;4.31;100.00;93703.72;5089470;28;20262;-91
2022/12/29 07:37:06;;;;;;;40.23;28.67;;;;;;;4.25;100.00;93681.31;5090363;28;20181;-79
2022/12/29 07:39:32;;;;;;;45.83;30.00;;;;;;;4.24;100.00;93712.53;5087957;28;20224;-77
2022/12/29 07:41:57;;;;;;;42.83;29.57;;;;;;;4.26;100.00;93705.38;5092190;28;20280;-73
2022/12/29 07:44:23;;;;;;;42.50;27.90;;;;;;;4.54;100.00;93709.06;5089732;28;20282;-73
2022/12/29 07:46:48;;;;;;;46.90;28.60;;;;;;;4.47;100.00;93695.41;5088798;28;20183;-75
2022/12/29 07:49:13;;;;;;;40.43;29.33;;;;;;;4.13;100.00;93698.50;5088301;28;20232;-78
2022/12/29 07:51:39;;;;;;;39.67;28.73;;;;;;;4.41;100.00;93709.19;5089301;28;20252;-75
2022/12/29 07:54:04;;;;;;;40.07;28.57;;;;;;;4.59;100.00;93708.41;5089278;28;20220;-74
2022/12/29 07:56:29;;;;;;;44.07;29.73;;;;;;;4.12;100.00;93699.53;5088904;28;20207;-76
2022/12/29 07:58:55;;;;;;;41.60;30.10;;;;;;;4.26;100.00;93721.66;5089736;28;20172;-79
2022/12/29 08:01:23;;;;;;;42.40;28.73;;;;;;;4.44;100.00;93702.78;5087921;28;20200;-83
2022/12/29 08:03:48;;;;;;;40.70;28.43;;;;;;;4.43;100.00;93702.00;5088345;28;20196;-80
2022/12/29 08:06:15;;;;;;;41.00;29.50;;;;;;;4.69;100.00;93722.44;5089585;28;20195;-80
2022/12/29 08:08:40;;;;;;;38.67;29.00;;;;;;;4.79;100.00;93722.69;5089176;28;20200;-75
2022/12/29 08:11:06;;;;;;;41.67;29.37;;;;;;;4.94;100.00;93720.56;5088708;28;20242;-91
2022/12/29 08:13:31;;;;;;;38.90;28.67;;;;;;;4.83;100.00;93708.34;5089482;28;20191;-88
2022/12/29 08:15:59;;;;;;;45.53;29.80;;;;;;;5.03;100.00;93720.25;5088082;28;20213;-76
2022/12/29 08:18:25;;;;;;;44.93;30.30;;;;;;;4.90;100.00;93729.75;5088502;28;20184;-78
2022/12/29 08:20:50;;;;;;;45.27;30.93;;;;;;;4.92;100.00;93727.72;5088593;28;20243;-78
2022/12/29 08:23:15;;;;;;;48.70;31.87;;;;;;;4.95;100.00;93722.13;5090504;28;20231;-85
2022/12/29 08:25:41;;;;;;;43.07;28.57;;;;;;;5.15;100.00;93713.34;5087779;28;20977;-83
2022/12/29 08:28:06;;;;;;;45.47;30.13;;;;;;;5.16;100.00;93704.56;5087861;28;20177;-82
2022/12/29 08:30:32;;;;;;;40.97;29.07;;;;;;;5.29;99.70;93722.53;5088416;28;20230;-81
2022/12/29 08:32:57;;;;;;;45.40;31.57;;;;;;;5.03;100.00;93702.16;5088392;28;20198;-83
2022/12/29 08:35:22;;;;;;;46.37;30.80;;;;;;;5.03;100.00;93723.63;5087193;28;21064;-87
2022/12/29 08:37:48;;;;;;;41.17;30.97;;;;;;;5.27;100.00;93724.53;5088840;28;20204;-75
2022/12/29 08:40:13;;;;;;;44.10;30.10;;;;;;;5.41;99.72;93718.16;5087897;28;20246;-83
2022/12/29 08:42:39;;;;;;;47.83;30.30;;;;;;;5.44;98.91;93712.53;5089573;28;20224;-86
2022/12/29 08:45:06;;;;;;;45.23;29.73;;;;;;;6.08;100.00;93717.81;5088993;28;20219;-79
2022/12/29 08:47:31;;;;;;;41.10;30.27;;;;;;;6.09;100.00;93716.78;5088619;28;20216;-75
2022/12/29 08:49:56;;;;;;;44.33;29.53;;;;;;;6.11;100.00;93723.34;5088137;28;20278;-73
2022/12/29 08:52:22;;;;;;;42.33;29.83;;;;;;;6.43;100.00;93724.59;5090404;28;20204;-74
2022/12/29 08:54:48;;;;;;;45.30;31.47;;;;;;;6.24;98.67;93723.09;5090033;28;21243;-72
2022/12/29 08:57:13;;;;;;;40.23;30.00;;;;;;;6.65;93.79;93726.59;5087424;28;20184;-72
2022/12/29 08:59:38;;;;;;;40.07;30.50;;;;;;;6.57;92.71;93724.38;5088538;28;20244;-73
2022/12/29 09:02:04;;;;;;;40.00;30.03;;;;;;;6.12;93.69;93700.78;5088553;28;20200;-73
2022/12/29 09:04:29;;;;;;;44.77;31.63;;;;;;;6.03;94.95;93720.28;5089604;28;20231;-73
2022/12/29 09:06:55;;;;;;;40.23;30.43;;;;;;;6.08;95.08;93707.44;5088639;28;20188;-73
2022/12/29 09:09:20;;;;;;;44.40;31.30;;;;;;;5.96;94.59;93710.00;5088656;28;20254;-73
2022/12/29 09:11:46;;;;;;;43.23;30.57;;;;;;;6.01;94.69;93706.75;5088616;28;20204;-73
2022/12/29 09:14:11;;;;;;;45.57;29.43;;;;;;;6.17;93.37;93711.28;5088078;28;20301;-73
2022/12/29 09:16:37;;;;;;;41.07;29.43;;;;;;;5.84;94.02;93677.31;5087074;28;20183;-73
2022/12/29 09:19:03;;;;;;;43.47;30.80;;;;;;;5.93;94.59;93694.13;5090284;28;20255;-73
2022/12/29 09:21:29;;;;;;;43.33;30.23;;;;;;;6.00;94.32;93705.97;5088797;28;20207;-73
2022/12/29 09:23:54;;;;;;;45.70;30.67;;;;;;;6.03;93.04;93695.16;5088824;28;20181;-73
2022/12/29 09:26:20;;;;;;;46.97;31.83;;;;;;;5.96;94.20;93704.81;5088470;28;20181;-73
2022/12/29 09:28:45;;;;;;;51.87;33.30;;;;;;;5.75;95.21;93707.13;5087753;28;20192;-73
2022/12/29 09:31:11;;;;;;;44.90;30.93;;;;;;;5.99;95.02;93695.81;5087648;28;20188;-73
2022/12/29 09:33:37;;;;;;;44.50;32.27;;;;;;;6.01;94.25;93684.22;5089722;28;20188;-73
2022/12/29 09:36:03;;;;;;;46.97;31.67;;;;;;;6.05;93.96;93694.94;5087574;28;20280;-73
2022/12/29 09:38:29;;;;;;;46.90;30.77;;;;;;;6.23;93.27;93700.00;5091271;28;20207;-73
2022/12/29 09:41:13;;;;;;;44.37;31.93;;;;;;;6.12;92.43;93693.00;5089539;28;20220;-73
2022/12/29 09:44:03;;;;;;;49.17;31.20;;;;;;;6.41;91.15;93697.31;5089286;28;20207;-73
2022/12/29 09:46:37;;;;;;;46.43;30.47;;;;;;;6.21;92.00;93683.91;5085219;28;20240;-73
2022/12/29 09:49:08;;;;;;;39.93;30.03;;;;;;;6.45;90.88;93688.06;5073152;28;20293;-73
2022/12/29 09:51:36;;;;;;;45.03;32.33;;;;;;;6.46;90.92;93680.03;5086852;28;20192;-73
2022/12/29 09:54:35;;;;;;;43.37;31.27;;;;;;;6.49;90.12;93684.78;5087495;28;20773;-73
2022/12/29 09:57:01;;;;;;;43.03;29.77;;;;;;;6.49;90.60;93683.97;5089185;28;20193;-74
2022/12/29 09:59:40;;;;;;;41.97;31.87;;;;;;;6.56;89.98;93669.09;5090561;28;20224;-73
2022/12/29 10:02:23;;;;;;;44.63;30.87;;;;;;;6.46;90.18;93689.63;5089868;28;20208;-73
2022/12/29 10:04:49;;;;;;;45.77;31.77;;;;;;;6.29;90.83;93657.59;5087979;28;20216;-73
2022/12/29 10:07:26;;;;;;;46.60;31.83;;;;;;;6.49;91.57;93674.41;5088984;28;20246;-73
2022/12/29 10:10:09;;;;;;;47.97;33.13;;;;;;;6.32;90.50;93651.97;5092033;28;20270;-75
2022/12/29 10:13:03;;;;;;;48.03;31.43;;;;;;;6.58;91.01;93673.03;5093179;28;20188;-73
2022/12/29 10:15:48;;;;;;;52.77;32.80;;;;;;;6.46;90.79;93668.88;5091304;28;20253;-73
2022/12/29 10:18:45;;;;;;;50.10;32.07;;;;;;;6.46;90.44;93666.28;5092214;28;20207;-73
2022/12/29 10:21:35;;;;;;;42.50;31.60;;;;;;;6.85;88.81;93657.75;5091216;28;20231;-73
2022/12/29 10:24:05;;;;;;;51.23;31.93;;;;;;;7.00;87.28;93655.47;5092111;28;20185;-73
2022/12/29 10:26:39;;;;;;;44.90;30.43;;;;;;;6.90;87.84;93677.81;5092528;28;20253;-73
2022/12/29 10:29:10;;;;;;;43.87;29.07;;;;;;;7.13;87.19;93670.75;5091481;28;20300;-73
2022/12/29 10:31:42;;;;;;;44.30;30.60;;;;;;;7.27;85.64;93673.88;5092126;28;20181;-73
2022/12/29 10:34:23;;;;;;;42.67;29.30;;;;;;;6.97;86.21;93671.50;5091246;28;20260;-73
2022/12/29 10:36:53;;;;;;;44.00;32.50;;;;;;;6.81;87.26;93661.84;5091739;28;20181;-73
2022/12/29 10:39:37;;;;;;;51.10;33.03;;;;;;;6.68;87.83;93659.47;5092014;28;20231;-73
2022/12/29 10:42:21;;;;;;;43.27;32.40;;;;;;;6.79;88.10;93665.66;5092655;28;20204;-73
2022/12/29 10:44:47;;;;;;;46.83;31.63;;;;;;;6.69;88.12;93658.47;5091109;28;20236;-73
2022/12/29 10:47:20;;;;;;;48.10;32.23;;;;;;;6.92;87.92;93648.03;5091538;28;20184;-73
2022/12/29 10:49:48;;;;;;;41.03;29.37;;;;;;;7.06;86.78;93648.53;5092217;28;20225;-73
2022/12/29 10:52:15;;;;;;;45.20;31.67;;;;;;;7.15;86.24;93647.94;5091800;28;20189;-73
2022/12/29 10:55:02;;;;;;;48.57;31.03;;;;;;;7.36;86.24;93644.69;5090923;28;20228;-73
2022/12/29 10:57:33;;;;;;;42.40;29.10;;;;;;;7.51;84.54;93638.97;5092332;28;20189;-73
2022/12/29 10:59:58;;;;;;;39.87;30.90;;;;;;;7.34;84.89;93641.56;5092604;28;20894;-74
2022/12/29 11:02:41;;;;;;;42.80;31.37;;;;;;;7.36;84.00;93610.91;5091897;28;20216;-74
2022/12/29 11:05:28;;;;;;;40.00;29.00;;;;;;;7.53;83.97;93624.72;5091627;28;20224;-73
2022/12/29 11:08:01;;;;;;;50.07;31.50;;;;;;;7.31;85.18;93625.63;5092144;28;20259;-73
2022/12/29 11:10:32;;;;;;;41.73;28.93;;;;;;;7.69;83.00;93615.34;5090401;28;20231;-73
2022/12/29 11:13:04;;;;;;;42.40;29.70;;;;;;;7.72;83.34;93612.31;5092565;28;20223;-73
2022/12/29 11:15:40;;;;;;;43.03;29.53;;;;;;;7.69;83.50;93616.16;5090775;28;20221;-73
2022/12/29 11:18:20;;;;;;;46.57;29.77;;;;;;;7.67;83.83;93615.59;5091260;28;20218;-74
2022/12/29 11:20:47;;;;;;;42.77;28.80;;;;;;;7.82;83.12;93613.25;5089415;28;20209;-73
2022/12/29 11:23:30;;;;;;;40.03;29.17;;;;;;;8.00;82.43;93615.59;5091057;28;20216;-73
2022/12/29 11:26:11;;;;;;;39.83;28.10;;;;;;;7.90;82.36;93612.06;5090540;28;20224;-74
2022/12/29 11:28:38;;;;;;;38.03;29.77;;;;;;;7.76;83.75;93614.19;5090748;28;20418;-73
2022/12/29 11:31:06;;;;;;;42.27;30.13;;;;;;;7.94;82.42;93613.94;5091365;28;20248;-73
2022/12/29 11:33:33;;;;;;;38.47;29.97;;;;;;;7.98;82.19;93611.66;5091268;28;20184;-74
2022/12/29 11:36:22;;;;;;;45.20;29.57;;;;;;;8.18;80.61;93607.56;5090253;28;20224;-74
2022/12/29 11:38:53;;;;;;;42.57;29.57;;;;;;;7.53;83.65;93605.75;5090755;28;20189;-73
2022/12/29 11:41:22;;;;;;;44.03;30.77;;;;;;;7.58;83.79;93598.81;5090639;28;20187;-74
2022/12/29 11:43:48;;;;;;;44.77;32.53;;;;;;;7.72;83.68;93600.09;5090640;28;20218;-73
2022/12/29 11:46:22;;;;;;;41.90;30.57;;;;;;;7.83;82.22;93596.63;5090212;28;20201;-74
2022/12/29 11:48:48;;;;;;;41.93;29.20;;;;;;;7.65;83.90;93601.28;5088911;28;20199;-73
2022/12/29 11:51:23;;;;;;;40.73;29.20;;;;;;;7.70;84.35;93601.34;5091164;28;20212;-73
2022/12/29 11:53:56;;;;;;;43.67;29.80;;;;;;;8.03;82.13;93588.34;5090692;28;20188;-73
2022/12/29 11:56:32;;;;;;;39.07;29.60;;;;;;;7.92;82.71;93595.19;5090058;28;20267;-73
2022/12/29 11:58:58;;;;;;;39.57;29.97;;;;;;;7.86;82.46;93582.38;5091404;28;20198;-73
2022/12/29 12:01:35;;;;;;;42.80;29.67;;;;;;;7.92;82.67;93597.03;5090716;28;20196;-73
2022/12/29 12:04:03;;;;;;;43.17;28.93;;;;;;;7.97;82.16;93594.47;5089559;28;20271;-73
2022/12/29 12:06:31;;;;;;;42.30;30.97;;;;;;;7.87;82.90;93605.53;5093228;28;20187;-73
2022/12/29 12:09:03;;;;;;;42.13;30.20;;;;;;;8.43;79.79;93591.50;5090000;28;20216;-73